createdAt,value
2018-09-14T00:00:35.225Z,96.33
2018-09-14T00:03:02.898Z,96.15
2018-09-14T00:05:30.710Z,95.63
2018-09-14T00:07:57.971Z,95.06
2018-09-14T00:10:25.207Z,95.19
2018-09-14T00:12:52.473Z,93.21
2018-09-14T00:15:19.692Z,93.14
2018-09-14T00:17:46.875Z,92.99
2018-09-14T00:20:14.142Z,92.91
2018-09-14T00:22:41.337Z,92.03
2018-09-14T00:25:08.548Z,92.57
2018-09-14T00:27:36.358Z,93.37
2018-09-14T00:30:03.753Z,92.74
2018-09-14T00:32:30.951Z,93.51
2018-09-14T00:34:58.185Z,94.37
2018-09-14T00:37:25.458Z,95.54
2018-09-14T00:39:52.665Z,96.09
2018-09-14T00:42:19.923Z,96.95
2018-09-14T00:44:47.124Z,96.87
2018-09-14T00:47:14.305Z,97.46
2018-09-14T00:49:41.647Z,97.68
2018-09-14T00:52:08.885Z,97.04
2018-09-14T00:54:36.061Z,97.02
2018-09-14T00:57:03.335Z,97.47
2018-09-14T00:59:30.537Z,98.46
2018-09-14T01:01:57.842Z,97.72
2018-09-14T01:04:25.142Z,96.01
2018-09-14T01:06:52.339Z,95.36
2018-09-14T01:09:24.448Z,95.64
2018-09-14T01:11:51.772Z,95.51
2018-09-14T01:14:18.966Z,95.07
2018-09-14T01:16:46.242Z,94.86
2018-09-14T01:19:13.454Z,95.18
2018-09-14T01:21:40.738Z,95.16
2018-09-14T01:24:08.839Z,95.61
2018-09-14T01:26:36.346Z,96.10
2018-09-14T01:29:03.602Z,95.42
2018-09-14T01:31:30.898Z,95.58
2018-09-14T01:33:58.491Z,96.64
2018-09-14T01:36:25.685Z,97.43
2018-09-14T01:38:52.950Z,98.95
2018-09-14T01:41:20.136Z,99.94
2018-09-14T01:43:47.333Z,98.71
2018-09-14T01:46:14.591Z,98.25
2018-09-14T01:48:41.832Z,98.18
2018-09-14T01:51:09.027Z,98.55
2018-09-14T01:53:36.363Z,98.72
2018-09-14T01:56:03.621Z,99.18
2018-09-14T01:58:30.843Z,100.00
2018-09-14T02:00:58.101Z,100.00
2018-09-14T02:03:25.354Z,99.24
2018-09-14T02:05:52.794Z,99.49
2018-09-14T02:08:20.025Z,99.90
2018-09-14T02:10:47.225Z,99.47
2018-09-14T02:13:14.441Z,99.77
2018-09-14T02:15:41.702Z,99.84
2018-09-14T02:18:08.927Z,99.12
2018-09-14T02:20:36.160Z,99.32
2018-09-14T02:23:03.409Z,99.40
2018-09-14T02:25:30.935Z,99.24
2018-09-14T02:27:58.170Z,99.29
2018-09-14T02:30:25.414Z,98.84
2018-09-14T02:32:52.638Z,98.40
2018-09-14T02:35:19.885Z,98.08
2018-09-14T02:37:47.546Z,98.87
2018-09-14T02:40:14.791Z,98.52
2018-09-14T02:42:42.000Z,97.45
2018-09-14T02:45:09.273Z,97.74
2018-09-14T02:47:36.511Z,97.56
2018-09-14T02:50:03.793Z,97.63
2018-09-14T02:52:31.093Z,98.47
2018-09-14T02:54:58.425Z,97.11
2018-09-14T02:57:25.678Z,97.59
2018-09-14T02:59:53.046Z,98.39
2018-09-14T03:02:20.365Z,97.35
2018-09-14T03:04:47.585Z,96.92
2018-09-14T03:07:14.870Z,97.62
2018-09-14T03:09:42.075Z,97.26
2018-09-14T03:12:09.377Z,96.20
2018-09-14T03:14:36.593Z,97.03
2018-09-14T03:17:03.855Z,97.35
2018-09-14T03:19:31.097Z,97.53
2018-09-14T03:21:58.391Z,97.05
2018-09-14T03:24:25.602Z,96.80
2018-09-14T03:26:52.859Z,96.41
2018-09-14T03:29:20.192Z,97.24
2018-09-14T03:31:47.402Z,97.99
2018-09-14T03:34:14.622Z,97.63
2018-09-14T03:36:42.328Z,97.08
2018-09-14T03:39:10.338Z,97.00
2018-09-14T03:41:37.602Z,97.08
2018-09-14T03:44:04.924Z,97.68
2018-09-14T03:46:32.177Z,98.29
2018-09-14T03:48:59.434Z,98.04
2018-09-14T03:51:26.681Z,97.85
2018-09-14T03:53:53.941Z,97.91
2018-09-14T03:56:21.290Z,98.31
2018-09-14T03:58:48.715Z,99.10
2018-09-14T04:01:15.977Z,98.40
2018-09-14T04:03:43.224Z,98.92
2018-09-14T04:06:10.491Z,99.90
2018-09-14T04:08:37.745Z,100.00
2018-09-14T04:11:05.038Z,99.86
2018-09-14T04:13:32.390Z,99.01
2018-09-14T04:16:00.740Z,98.70
2018-09-14T04:18:28.064Z,98.02
2018-09-14T04:20:55.352Z,98.04
2018-09-14T04:23:22.638Z,98.12
2018-09-14T04:25:49.956Z,97.89
2018-09-14T04:28:17.258Z,98.17
2018-09-14T04:30:44.502Z,97.48
2018-09-14T04:33:11.760Z,97.59
2018-09-14T04:35:39.067Z,97.66
2018-09-14T04:38:06.428Z,98.32
2018-09-14T04:40:33.632Z,99.07
2018-09-14T04:43:00.898Z,100.00
2018-09-14T04:45:28.093Z,100.00
2018-09-14T04:47:55.325Z,100.00
2018-09-14T04:50:22.967Z,100.00
2018-09-14T04:52:50.213Z,100.00
2018-09-14T04:55:17.383Z,100.00
2018-09-14T04:57:45.138Z,100.00
2018-09-14T05:00:12.382Z,99.38
2018-09-14T05:02:39.614Z,98.91
2018-09-14T05:05:06.993Z,97.17
2018-09-14T05:07:34.302Z,97.63
2018-09-14T05:10:01.523Z,95.86
2018-09-14T05:12:28.785Z,96.40
2018-09-14T05:14:55.989Z,95.75
2018-09-14T05:17:23.217Z,96.76
2018-09-14T05:19:50.429Z,97.23
2018-09-14T05:22:17.609Z,94.13
2018-09-14T05:24:44.789Z,94.20
2018-09-14T05:27:12.046Z,93.78
2018-09-14T05:29:39.365Z,92.65
2018-09-14T05:32:06.600Z,93.90
2018-09-14T05:34:33.862Z,94.41
2018-09-14T05:37:01.070Z,94.79
2018-09-14T05:39:28.299Z,94.75
2018-09-14T05:41:55.636Z,93.87
2018-09-14T05:44:22.854Z,93.68
2018-09-14T05:46:50.116Z,94.40
2018-09-14T05:49:17.374Z,95.40
2018-09-14T05:51:44.592Z,93.74
2018-09-14T05:54:11.874Z,94.79
2018-09-14T05:56:40.878Z,96.25
2018-09-14T05:59:08.190Z,95.76
2018-09-14T06:01:35.442Z,92.50
2018-09-14T06:04:02.793Z,91.65
2018-09-14T06:06:30.200Z,93.01
2018-09-14T06:08:57.435Z,93.27
2018-09-14T06:11:24.769Z,91.88
2018-09-14T06:13:52.116Z,92.66
2018-09-14T06:16:19.413Z,92.52
2018-09-14T06:18:46.960Z,91.28
2018-09-14T06:21:14.208Z,90.30
2018-09-14T06:23:41.427Z,91.03
2018-09-14T06:26:08.795Z,92.13
2018-09-14T06:28:36.055Z,90.25
2018-09-14T06:31:03.306Z,89.48
2018-09-14T06:33:31.704Z,90.78
2018-09-14T06:35:58.960Z,90.65
2018-09-14T06:38:26.183Z,89.93
2018-09-14T06:40:53.427Z,89.24
2018-09-14T06:43:20.616Z,89.48
2018-09-14T06:45:47.856Z,88.11
2018-09-14T06:48:15.074Z,88.16
2018-09-14T06:50:42.283Z,89.59
2018-09-14T06:53:09.543Z,88.34
2018-09-14T06:55:36.786Z,86.33
2018-09-14T06:58:04.039Z,86.87
2018-09-14T07:00:31.322Z,86.18
2018-09-14T07:02:58.656Z,84.07
2018-09-14T07:05:26.031Z,83.85
2018-09-14T07:07:53.313Z,83.98
2018-09-14T07:10:20.826Z,83.28
2018-09-14T07:12:48.070Z,81.79
2018-09-14T07:15:15.311Z,83.09
2018-09-14T07:17:42.603Z,81.60
2018-09-14T07:20:10.163Z,80.79
2018-09-14T07:22:37.541Z,79.81
2018-09-14T07:25:04.837Z,75.95
2018-09-14T07:27:32.111Z,73.96
2018-09-14T07:29:59.559Z,75.73
2018-09-14T07:32:26.935Z,73.19
2018-09-14T07:34:54.685Z,75.30
2018-09-14T07:37:22.081Z,74.39
2018-09-14T07:39:49.537Z,69.26
2018-09-14T07:42:16.879Z,68.53
2018-09-14T07:44:44.164Z,68.68
2018-09-14T07:47:11.638Z,66.16
2018-09-14T07:49:38.889Z,68.47
2018-09-14T07:52:06.529Z,65.26
2018-09-14T07:54:33.850Z,64.58
2018-09-14T07:57:01.133Z,64.52
2018-09-14T07:59:28.400Z,66.31
2018-09-14T08:01:55.729Z,66.61
2018-09-14T08:04:23.036Z,64.54
2018-09-14T08:06:50.246Z,64.03
2018-09-14T08:09:17.553Z,62.72
2018-09-14T08:11:44.757Z,56.04
2018-09-14T08:14:11.973Z,58.09
2018-09-14T08:16:39.209Z,57.40
2018-09-14T08:19:06.893Z,58.42
2018-09-14T08:21:34.378Z,58.69
2018-09-14T08:24:01.649Z,57.55
2018-09-14T08:26:28.906Z,59.22
2018-09-14T08:28:56.115Z,58.57
2018-09-14T08:31:23.559Z,59.54
2018-09-14T08:33:50.797Z,61.45
2018-09-14T08:36:17.989Z,62.54
2018-09-14T08:38:45.240Z,63.34
2018-09-14T08:41:12.982Z,64.65
2018-09-14T08:43:40.176Z,66.15
2018-09-14T08:46:07.493Z,65.14
2018-09-14T08:48:34.713Z,63.53
2018-09-14T08:51:01.987Z,66.64
2018-09-14T08:53:29.334Z,65.83
2018-09-14T08:55:56.605Z,66.65
2018-09-14T08:58:23.858Z,67.32
2018-09-14T09:00:51.182Z,65.10
2018-09-14T09:03:18.481Z,63.94
2018-09-14T09:05:45.756Z,64.53
2018-09-14T09:08:13.041Z,66.56
2018-09-14T09:10:40.335Z,63.80
2018-09-14T09:13:07.541Z,63.30
2018-09-14T09:15:34.916Z,63.09
2018-09-14T09:18:02.150Z,59.48
2018-09-14T09:20:29.389Z,59.16
2018-09-14T09:22:56.645Z,56.06
2018-09-14T09:25:23.863Z,54.94
2018-09-14T09:27:51.126Z,56.13
2018-09-14T09:30:18.460Z,55.56
2018-09-14T09:32:45.676Z,51.04
2018-09-14T09:35:12.951Z,53.35
2018-09-14T09:37:40.272Z,53.75
2018-09-14T09:40:07.541Z,53.75
2018-09-14T09:42:34.759Z,56.94
2018-09-14T09:45:02.094Z,58.42
2018-09-14T09:47:29.385Z,60.27
2018-09-14T09:49:56.618Z,56.60
2018-09-14T09:52:23.912Z,60.13
2018-09-14T09:54:51.139Z,60.62
2018-09-14T09:57:18.369Z,61.38
2018-09-14T09:59:45.618Z,59.38
2018-09-14T10:02:18.578Z,59.91
2018-09-14T10:04:51.622Z,62.00
2018-09-14T10:07:18.828Z,63.24
2018-09-14T10:09:46.050Z,63.17
2018-09-14T10:12:13.301Z,57.77
2018-09-14T10:14:40.469Z,60.49
2018-09-14T10:17:07.673Z,56.58
2018-09-14T10:19:35.246Z,56.52
2018-09-14T10:22:02.434Z,57.19
2018-09-14T10:24:29.618Z,59.20
2018-09-14T10:26:56.853Z,56.47
2018-09-14T10:29:24.037Z,57.46
2018-09-14T10:31:51.247Z,55.57
2018-09-14T10:34:18.489Z,54.20
2018-09-14T10:36:45.677Z,53.40
2018-09-14T10:39:12.891Z,54.95
2018-09-14T10:41:40.153Z,54.21
2018-09-14T10:44:07.353Z,55.71
2018-09-14T10:46:34.626Z,56.25
2018-09-14T10:49:01.934Z,56.57
2018-09-14T10:51:29.155Z,55.24
2018-09-14T10:53:56.349Z,54.81
2018-09-14T10:56:23.626Z,56.04
2018-09-14T10:58:50.815Z,52.88
2018-09-14T11:01:17.989Z,52.33
2018-09-14T11:03:45.399Z,53.57
2018-09-14T11:06:13.646Z,55.50
2018-09-14T11:08:40.804Z,55.02
2018-09-14T11:11:08.145Z,55.14
2018-09-14T11:13:35.348Z,56.46
2018-09-14T11:16:02.562Z,56.27
2018-09-14T11:18:29.865Z,53.54
2018-09-14T11:20:57.062Z,56.68
2018-09-14T11:23:24.257Z,54.75
2018-09-14T11:25:51.493Z,60.08
2018-09-14T11:28:18.721Z,51.51
2018-09-14T11:30:45.916Z,52.39
2018-09-14T11:33:14.181Z,49.77
2018-09-14T11:35:41.372Z,51.74
2018-09-14T11:38:08.627Z,51.26
2018-09-14T11:40:35.817Z,48.08
2018-09-14T11:43:03.165Z,50.89
2018-09-14T11:45:30.360Z,49.42
2018-09-14T11:47:57.598Z,49.49
2018-09-14T11:50:24.870Z,53.23
2018-09-14T11:52:52.359Z,50.43
2018-09-14T11:55:20.039Z,51.31
2018-09-14T11:57:47.229Z,50.38
2018-09-14T12:00:14.470Z,49.61
2018-09-14T12:02:42.962Z,50.21
2018-09-14T12:05:10.564Z,50.55
2018-09-14T12:07:39.186Z,49.41
2018-09-14T12:10:07.674Z,49.04
2018-09-14T12:12:34.904Z,46.03
2018-09-14T12:15:02.125Z,47.29
2018-09-14T12:17:29.877Z,45.39
2018-09-14T12:19:57.449Z,48.19
2018-09-14T12:22:28.010Z,46.97
2018-09-14T12:24:55.306Z,45.88
2018-09-14T12:27:23.296Z,47.57
2018-09-14T12:29:50.528Z,49.11
2018-09-14T12:32:17.865Z,49.40
2018-09-14T12:34:45.931Z,49.66
2018-09-14T12:37:13.137Z,51.38
2018-09-14T12:39:41.912Z,48.53
2018-09-14T12:42:09.199Z,47.15
2018-09-14T12:44:36.429Z,47.23
2018-09-14T12:47:03.778Z,48.42
2018-09-14T12:49:31.193Z,48.60
2018-09-14T12:51:58.425Z,48.92
2018-09-14T12:54:25.694Z,50.53
2018-09-14T12:56:52.911Z,49.10
2018-09-14T12:59:20.105Z,47.25
2018-09-14T13:01:47.398Z,47.23
2018-09-14T13:04:14.659Z,48.40
2018-09-14T13:06:41.805Z,46.32
2018-09-14T13:09:10.510Z,51.19
2018-09-14T13:11:38.188Z,53.51
2018-09-14T13:14:05.474Z,50.46
2018-09-14T13:16:32.728Z,50.10
2018-09-14T13:18:59.916Z,48.36
2018-09-14T13:21:27.118Z,50.52
2018-09-14T13:23:54.349Z,51.05
2018-09-14T13:26:21.555Z,50.87
2018-09-14T13:28:48.746Z,48.90
2018-09-14T13:31:15.968Z,48.90
2018-09-14T13:33:43.267Z,47.86
2018-09-14T13:36:10.431Z,50.08
2018-09-14T13:38:37.684Z,48.76
2018-09-14T13:41:04.997Z,50.72
2018-09-14T13:43:32.211Z,49.79
2018-09-14T13:45:59.474Z,50.08
2018-09-14T13:48:26.774Z,50.08
2018-09-14T13:50:53.990Z,49.25
2018-09-14T13:53:21.219Z,50.70
2018-09-14T13:55:48.480Z,49.52
2018-09-14T13:58:15.692Z,50.56
2018-09-14T14:00:42.933Z,48.27
2018-09-14T14:03:20.554Z,47.84
2018-09-14T14:05:47.811Z,47.42
2018-09-14T14:08:14.996Z,51.26
2018-09-14T14:10:42.282Z,50.80
2018-09-14T14:13:09.828Z,50.00
2018-09-14T14:15:37.063Z,50.76
2018-09-14T14:18:05.429Z,48.40
2018-09-14T14:20:32.663Z,50.34
2018-09-14T14:23:00.080Z,50.26
2018-09-14T14:25:27.477Z,48.07
2018-09-14T14:27:54.960Z,49.19
2018-09-14T14:30:22.182Z,46.71
2018-09-14T14:32:49.437Z,47.50
2018-09-14T14:35:16.690Z,48.92
2018-09-14T14:37:44.002Z,50.47
2018-09-14T14:40:11.197Z,48.65
2018-09-14T14:42:38.516Z,50.22
2018-09-14T14:45:05.733Z,47.10
2018-09-14T14:47:32.930Z,48.74
2018-09-14T14:50:00.289Z,49.06
2018-09-14T14:52:27.504Z,49.77
2018-09-14T14:54:54.718Z,50.67
2018-09-14T14:57:21.971Z,50.29
2018-09-14T14:59:49.215Z,52.69
2018-09-14T15:02:16.393Z,52.57
2018-09-14T15:04:43.658Z,52.97
2018-09-14T15:07:10.953Z,54.00
2018-09-14T15:09:38.137Z,54.64
2018-09-14T15:12:05.858Z,53.90
2018-09-14T15:14:33.323Z,55.55
2018-09-14T15:17:00.502Z,53.33
2018-09-14T15:19:27.770Z,53.68
2018-09-14T15:21:55.058Z,56.19
2018-09-14T15:24:22.538Z,53.67
2018-09-14T15:26:49.752Z,51.90
2018-09-14T15:29:16.995Z,52.32
2018-09-14T15:31:45.929Z,51.78
2018-09-14T15:34:13.929Z,50.94
2018-09-14T15:36:41.182Z,51.52
2018-09-14T15:39:09.569Z,52.83
2018-09-14T15:41:36.767Z,51.07
2018-09-14T15:44:04.046Z,52.49
2018-09-14T15:46:31.222Z,53.01
2018-09-14T15:48:58.425Z,55.14
2018-09-14T15:51:25.661Z,53.59
2018-09-14T15:53:52.857Z,54.82
2018-09-14T15:56:23.879Z,52.01
2018-09-14T15:58:51.164Z,52.36
2018-09-14T16:01:18.344Z,53.41
2018-09-14T16:03:45.562Z,54.44
2018-09-14T16:06:12.906Z,53.23
2018-09-14T16:08:40.121Z,55.54
2018-09-14T16:11:07.380Z,57.89
2018-09-14T16:13:34.696Z,55.98
2018-09-14T16:16:01.829Z,57.62
2018-09-14T16:18:29.002Z,59.26
2018-09-14T16:20:56.229Z,58.57
2018-09-14T16:23:23.424Z,58.61
2018-09-14T16:25:50.896Z,60.14
2018-09-14T16:28:18.133Z,60.89
2018-09-14T16:30:46.420Z,62.91
2018-09-14T16:33:13.603Z,63.61
2018-09-14T16:35:40.833Z,63.89
2018-09-14T16:38:08.383Z,65.62
2018-09-14T16:40:36.133Z,66.53
2018-09-14T16:43:03.460Z,67.06
2018-09-14T16:45:30.650Z,66.72
2018-09-14T16:47:57.857Z,67.51
2018-09-14T16:50:25.141Z,67.69
2018-09-14T16:52:52.269Z,68.29
2018-09-14T16:55:19.567Z,69.33
2018-09-14T16:57:46.882Z,70.27
2018-09-14T17:00:15.108Z,70.86
2018-09-14T17:02:42.317Z,71.05
2018-09-14T17:05:10.575Z,69.25
2018-09-14T17:07:37.786Z,70.24
2018-09-14T17:10:06.050Z,70.47
2018-09-14T17:12:33.299Z,70.83
2018-09-14T17:15:01.408Z,71.03
2018-09-14T17:17:28.625Z,71.34
2018-09-14T17:19:55.935Z,71.75
2018-09-14T17:22:23.154Z,72.47
2018-09-14T17:24:56.440Z,72.86
2018-09-14T17:27:23.711Z,73.48
2018-09-14T17:29:50.900Z,74.17
2018-09-14T17:32:18.197Z,74.25
2018-09-14T17:34:46.454Z,74.61
2018-09-14T17:37:13.811Z,74.07
2018-09-14T17:39:41.046Z,74.55
2018-09-14T17:42:08.324Z,74.26
2018-09-14T17:44:35.525Z,75.33
2018-09-14T17:47:02.871Z,74.85
2018-09-14T17:49:30.065Z,74.95
2018-09-14T17:51:57.245Z,75.80
2018-09-14T17:54:24.490Z,76.54
2018-09-14T17:56:51.648Z,76.76
2018-09-14T17:59:19.716Z,77.39
2018-09-14T18:01:46.992Z,77.80
2018-09-14T18:04:14.229Z,78.12
2018-09-14T18:06:41.445Z,78.80
2018-09-14T18:09:10.423Z,78.67
2018-09-14T18:11:37.880Z,79.07
2018-09-14T18:14:05.137Z,79.40
2018-09-14T18:16:32.513Z,80.08
2018-09-14T18:18:59.736Z,80.17
2018-09-14T18:21:26.971Z,80.51
2018-09-14T18:23:54.255Z,80.96
2018-09-14T18:26:21.425Z,81.16
2018-09-14T18:28:48.808Z,82.61
2018-09-14T18:31:16.055Z,82.95
2018-09-14T18:33:43.227Z,83.64
2018-09-14T18:36:10.441Z,84.14
2018-09-14T18:38:37.621Z,84.17
2018-09-14T18:41:04.789Z,84.53
2018-09-14T18:43:31.954Z,84.47
2018-09-14T18:45:59.161Z,84.75
2018-09-14T18:48:26.383Z,85.09
2018-09-14T18:50:53.677Z,85.06
2018-09-14T18:53:20.888Z,85.38
2018-09-14T18:55:48.215Z,86.48
2018-09-14T18:58:15.446Z,86.66
2018-09-14T19:00:42.633Z,86.86
2018-09-14T19:03:09.859Z,86.65
2018-09-14T19:05:37.045Z,87.08
2018-09-14T19:08:04.280Z,87.07
2018-09-14T19:10:31.561Z,87.74
2018-09-14T19:12:58.811Z,88.58
2018-09-14T19:15:26.091Z,88.35
2018-09-14T19:17:53.550Z,88.72
2018-09-14T19:20:20.867Z,89.20
2018-09-14T19:22:48.122Z,89.73
2018-09-14T19:25:15.425Z,89.47
2018-09-14T19:27:42.676Z,89.90
2018-09-14T19:30:10.147Z,90.30
2018-09-14T19:32:37.563Z,90.52
2018-09-14T19:35:04.741Z,91.28
2018-09-14T19:37:31.942Z,91.01
2018-09-14T19:39:59.229Z,91.03
2018-09-14T19:42:26.433Z,91.95
2018-09-14T19:44:53.635Z,92.16
2018-09-14T19:47:20.911Z,92.34
2018-09-14T19:49:48.116Z,92.36
2018-09-14T19:52:16.306Z,92.01
2018-09-14T19:54:43.530Z,92.74
2018-09-14T19:57:10.733Z,92.60
2018-09-14T19:59:37.957Z,93.08
2018-09-14T20:02:05.259Z,92.92
2018-09-14T20:04:32.448Z,92.79
2018-09-14T20:06:59.649Z,93.02
2018-09-14T20:09:26.937Z,93.00
2018-09-14T20:11:54.105Z,93.69
2018-09-14T20:14:21.477Z,93.91
2018-09-14T20:16:48.691Z,93.45
2018-09-14T20:19:15.907Z,93.81
2018-09-14T20:21:43.094Z,93.20
2018-09-14T20:24:10.466Z,93.23
2018-09-14T20:26:38.531Z,93.62
2018-09-14T20:29:05.770Z,92.41
2018-09-14T20:31:33.058Z,91.81
2018-09-14T20:34:00.256Z,92.75
2018-09-14T20:36:27.472Z,93.23
2018-09-14T20:38:54.689Z,92.73
2018-09-14T20:41:21.878Z,93.16
2018-09-14T20:43:49.058Z,93.65
2018-09-14T20:46:17.159Z,94.08
2018-09-14T20:48:44.345Z,94.20
2018-09-14T20:51:11.522Z,94.36
2018-09-14T20:53:38.791Z,94.40
2018-09-14T20:56:06.001Z,93.18
2018-09-14T20:58:33.179Z,92.77
2018-09-14T21:01:00.401Z,93.37
2018-09-14T21:03:28.685Z,92.79
2018-09-14T21:05:55.943Z,93.64
2018-09-14T21:08:23.169Z,93.23
2018-09-14T21:10:50.346Z,92.60
2018-09-14T21:13:17.599Z,91.85
2018-09-14T21:15:44.883Z,91.33
2018-09-14T21:18:12.066Z,91.27
2018-09-14T21:20:39.294Z,91.10
2018-09-14T21:23:06.569Z,90.51
2018-09-14T21:25:33.726Z,90.63
2018-09-14T21:28:00.908Z,91.01
2018-09-14T21:30:28.130Z,90.61
2018-09-14T21:32:55.363Z,91.09
2018-09-14T21:35:22.541Z,91.14
2018-09-14T21:37:49.813Z,91.02
2018-09-14T21:40:17.078Z,90.94
2018-09-14T21:42:44.362Z,89.86
2018-09-14T21:45:11.579Z,89.46
2018-09-14T21:47:38.731Z,89.87
2018-09-14T21:50:05.957Z,89.93
2018-09-14T21:52:33.202Z,89.64
2018-09-14T21:55:00.521Z,89.94
2018-09-14T21:57:27.713Z,90.30
2018-09-14T21:59:55.023Z,90.70
2018-09-14T22:02:22.209Z,90.66
2018-09-14T22:04:49.451Z,90.89
2018-09-14T22:07:16.706Z,89.76
2018-09-14T22:09:43.896Z,89.23
2018-09-14T22:12:11.067Z,89.36
2018-09-14T22:14:38.325Z,88.97
2018-09-14T22:17:05.506Z,89.00
2018-09-14T22:19:32.681Z,88.96
2018-09-14T22:21:59.952Z,89.21
2018-09-14T22:24:27.098Z,89.68
2018-09-14T22:26:54.250Z,88.87
2018-09-14T22:29:21.540Z,88.93
2018-09-14T22:31:48.705Z,88.53
2018-09-14T22:34:15.968Z,89.12
2018-09-14T22:36:44.030Z,88.09
2018-09-14T22:39:12.411Z,87.56
2018-09-14T22:41:39.601Z,87.12
2018-09-14T22:44:06.943Z,87.22
2018-09-14T22:46:34.113Z,86.53
2018-09-14T22:49:01.369Z,87.05
2018-09-14T22:51:28.604Z,86.79
2018-09-14T22:53:55.796Z,86.32
2018-09-14T22:56:22.978Z,86.15
2018-09-14T22:58:50.226Z,86.87
2018-09-14T23:01:18.655Z,87.21
2018-09-14T23:03:46.748Z,86.54
2018-09-14T23:06:13.993Z,87.05
2018-09-14T23:08:41.172Z,86.99
2018-09-14T23:11:08.693Z,87.35
2018-09-14T23:13:35.942Z,86.75
2018-09-14T23:16:03.112Z,87.16
2018-09-14T23:18:31.152Z,87.07
2018-09-14T23:20:58.956Z,88.02
2018-09-14T23:23:26.150Z,87.40
2018-09-14T23:25:56.795Z,87.69
2018-09-14T23:28:23.988Z,87.16
2018-09-14T23:30:51.265Z,87.16
2018-09-14T23:33:18.431Z,86.88
2018-09-14T23:35:45.702Z,87.07
2018-09-14T23:38:12.903Z,86.96
2018-09-14T23:40:40.077Z,85.27
2018-09-14T23:43:07.438Z,86.28
2018-09-14T23:45:34.698Z,87.26
2018-09-14T23:48:01.893Z,86.62
2018-09-14T23:50:29.167Z,86.19
2018-09-14T23:52:56.334Z,86.39
2018-09-14T23:55:23.505Z,86.69
2018-09-14T23:57:50.722Z,87.39
